sensor_id;sensor_type;location;lat;lon;timestamp;temperature;humidity
25550;DHT22;13444;50.562;7.262;2023-11-21T00:00:15;9.00;99.90
25550;DHT22;13444;50.562;7.262;2023-11-21T00:02:42;9.00;99.90
25550;DHT22;13444;50.562;7.262;2023-11-21T00:05:11;9.10;99.90
25550;DHT22;13444;50.562;7.262;2023-11-21T00:07:39;9.10;99.90
25550;DHT22;13444;50.562;7.262;2023-11-21T00:10:06;9.10;99.90
25550;DHT22;13444;50.562;7.262;2023-11-21T00:12:32;9.10;99.90
25550;DHT22;13444;50.562;7.262;2023-11-21T00:14:58;9.10;99.90
25550;DHT22;13444;50.562;7.262;2023-11-21T00:17:24;9.10;99.90
25550;DHT22;13444;50.562;7.262;2023-11-21T00:19:50;9.10;99.90
25550;DHT22;13444;50.562;7.262;2023-11-21T00:22:17;9.10;99.90
25550;DHT22;13444;50.562;7.262;2023-11-21T00:24:43;9.20;99.90
25550;DHT22;13444;50.562;7.262;2023-11-21T00:27:08;9.20;99.90
25550;DHT22;13444;50.562;7.262;2023-11-21T00:29:34;9.20;99.90
25550;DHT22;13444;50.562;7.262;2023-11-21T00:31:59;9.20;99.90
25550;DHT22;13444;50.562;7.262;2023-11-21T00:34:25;9.20;99.90
25550;DHT22;13444;50.562;7.262;2023-11-21T00:36:50;9.30;99.90
25550;DHT22;13444;50.562;7.262;2023-11-21T00:39:16;9.20;99.90
25550;DHT22;13444;50.562;7.262;2023-11-21T00:41:42;9.30;99.90
25550;DHT22;13444;50.562;7.262;2023-11-21T00:44:07;9.30;99.90
25550;DHT22;13444;50.562;7.262;2023-11-21T00:46:33;9.30;99.90
25550;DHT22;13444;50.562;7.262;2023-11-21T00:48:59;9.30;99.90
25550;DHT22;13444;50.562;7.262;2023-11-21T00:51:24;9.30;99.90
25550;DHT22;13444;50.562;7.262;2023-11-21T00:53:50;9.30;99.90
25550;DHT22;13444;50.562;7.262;2023-11-21T00:56:16;9.30;99.90
25550;DHT22;13444;50.562;7.262;2023-11-21T00:58:41;9.30;99.90
25550;DHT22;13444;50.562;7.262;2023-11-21T01:01:14;9.30;99.90
25550;DHT22;13444;50.562;7.262;2023-11-21T01:03:40;9.30;99.90
25550;DHT22;13444;50.562;7.262;2023-11-21T01:06:06;9.40;99.90
25550;DHT22;13444;50.562;7.262;2023-11-21T01:08:33;9.40;99.90
25550;DHT22;13444;50.562;7.262;2023-11-21T01:10:59;9.40;99.90
25550;DHT22;13444;50.562;7.262;2023-11-21T01:13:24;9.40;99.90
25550;DHT22;13444;50.562;7.262;2023-11-21T01:15:54;9.40;99.90
25550;DHT22;13444;50.562;7.262;2023-11-21T01:18:19;9.40;99.90
25550;DHT22;13444;50.562;7.262;2023-11-21T01:20:45;9.40;99.90
25550;DHT22;13444;50.562;7.262;2023-11-21T01:23:13;9.40;99.90
25550;DHT22;13444;50.562;7.262;2023-11-21T01:25:38;9.40;99.90
25550;DHT22;13444;50.562;7.262;2023-11-21T01:28:04;9.40;99.90
25550;DHT22;13444;50.562;7.262;2023-11-21T01:30:29;9.30;99.90
25550;DHT22;13444;50.562;7.262;2023-11-21T01:32:55;9.40;99.90
25550;DHT22;13444;50.562;7.262;2023-11-21T01:35:20;9.40;99.90
25550;DHT22;13444;50.562;7.262;2023-11-21T01:37:46;9.40;99.90
25550;DHT22;13444;50.562;7.262;2023-11-21T01:40:13;9.40;99.90
25550;DHT22;13444;50.562;7.262;2023-11-21T01:42:40;9.40;99.90
25550;DHT22;13444;50.562;7.262;2023-11-21T01:45:06;9.40;99.90
25550;DHT22;13444;50.562;7.262;2023-11-21T01:47:34;9.40;99.90
25550;DHT22;13444;50.562;7.262;2023-11-21T01:50:01;9.40;99.90
25550;DHT22;13444;50.562;7.262;2023-11-21T01:52:30;9.40;99.90
25550;DHT22;13444;50.562;7.262;2023-11-21T01:54:55;9.40;99.90
25550;DHT22;13444;50.562;7.262;2023-11-21T01:57:21;9.40;99.90
25550;DHT22;13444;50.562;7.262;2023-11-21T01:59:48;9.40;99.90
25550;DHT22;13444;50.562;7.262;2023-11-21T02:02:15;9.40;99.90
25550;DHT22;13444;50.562;7.262;2023-11-21T02:04:41;9.40;99.90
25550;DHT22;13444;50.562;7.262;2023-11-21T02:07:07;9.40;99.90
25550;DHT22;13444;50.562;7.262;2023-11-21T02:09:33;9.40;99.90
25550;DHT22;13444;50.562;7.262;2023-11-21T02:12:00;9.40;99.90
25550;DHT22;13444;50.562;7.262;2023-11-21T02:14:26;9.40;99.90
25550;DHT22;13444;50.562;7.262;2023-11-21T02:16:53;9.50;99.90
25550;DHT22;13444;50.562;7.262;2023-11-21T02:19:20;9.50;99.90
25550;DHT22;13444;50.562;7.262;2023-11-21T02:21:50;9.50;99.90
25550;DHT22;13444;50.562;7.262;2023-11-21T02:24:21;9.50;99.90
25550;DHT22;13444;50.562;7.262;2023-11-21T02:26:47;9.50;99.90
25550;DHT22;13444;50.562;7.262;2023-11-21T02:29:13;9.50;99.90
25550;DHT22;13444;50.562;7.262;2023-11-21T02:31:39;9.50;99.90
25550;DHT22;13444;50.562;7.262;2023-11-21T02:34:17;9.50;99.90
25550;DHT22;13444;50.562;7.262;2023-11-21T02:36:44;9.50;99.90
25550;DHT22;13444;50.562;7.262;2023-11-21T02:39:10;9.50;99.90
25550;DHT22;13444;50.562;7.262;2023-11-21T02:41:37;9.60;99.90
25550;DHT22;13444;50.562;7.262;2023-11-21T02:44:03;9.60;99.90
25550;DHT22;13444;50.562;7.262;2023-11-21T02:46:28;9.60;99.90
25550;DHT22;13444;50.562;7.262;2023-11-21T02:48:54;9.60;99.90
25550;DHT22;13444;50.562;7.262;2023-11-21T02:51:20;9.60;99.90
25550;DHT22;13444;50.562;7.262;2023-11-21T02:53:45;9.60;99.90
25550;DHT22;13444;50.562;7.262;2023-11-21T02:56:13;9.60;99.90
25550;DHT22;13444;50.562;7.262;2023-11-21T02:58:42;9.60;99.90
25550;DHT22;13444;50.562;7.262;2023-11-21T03:01:09;9.60;99.90
25550;DHT22;13444;50.562;7.262;2023-11-21T03:03:34;9.60;99.90
25550;DHT22;13444;50.562;7.262;2023-11-21T03:06:02;9.60;99.90
25550;DHT22;13444;50.562;7.262;2023-11-21T03:08:28;9.60;99.90
25550;DHT22;13444;50.562;7.262;2023-11-21T03:10:53;9.60;99.90
25550;DHT22;13444;50.562;7.262;2023-11-21T03:13:19;9.60;99.90
25550;DHT22;13444;50.562;7.262;2023-11-21T03:15:44;9.60;99.90
25550;DHT22;13444;50.562;7.262;2023-11-21T03:18:10;9.60;99.90
25550;DHT22;13444;50.562;7.262;2023-11-21T03:20:35;9.60;99.90
25550;DHT22;13444;50.562;7.262;2023-11-21T03:23:01;9.60;99.90
25550;DHT22;13444;50.562;7.262;2023-11-21T03:25:28;9.60;99.90
25550;DHT22;13444;50.562;7.262;2023-11-21T03:27:54;9.60;99.90
25550;DHT22;13444;50.562;7.262;2023-11-21T03:30:19;9.60;99.90
25550;DHT22;13444;50.562;7.262;2023-11-21T03:32:45;9.60;99.90
25550;DHT22;13444;50.562;7.262;2023-11-21T03:35:10;9.60;99.90
25550;DHT22;13444;50.562;7.262;2023-11-21T03:37:36;9.60;99.90
25550;DHT22;13444;50.562;7.262;2023-11-21T03:40:04;9.60;99.90
25550;DHT22;13444;50.562;7.262;2023-11-21T03:42:29;9.60;99.90
25550;DHT22;13444;50.562;7.262;2023-11-21T03:44:55;9.60;99.90
25550;DHT22;13444;50.562;7.262;2023-11-21T03:47:21;9.60;99.90
25550;DHT22;13444;50.562;7.262;2023-11-21T03:49:46;9.50;99.90
25550;DHT22;13444;50.562;7.262;2023-11-21T03:52:12;9.60;99.90
25550;DHT22;13444;50.562;7.262;2023-11-21T03:54:37;9.50;99.90
25550;DHT22;13444;50.562;7.262;2023-11-21T03:57:03;9.60;99.90
25550;DHT22;13444;50.562;7.262;2023-11-21T03:59:29;9.50;99.90
25550;DHT22;13444;50.562;7.262;2023-11-21T04:01:57;9.50;99.90
25550;DHT22;13444;50.562;7.262;2023-11-21T04:04:23;9.50;99.90
25550;DHT22;13444;50.562;7.262;2023-11-21T04:06:49;9.50;99.90
25550;DHT22;13444;50.562;7.262;2023-11-21T04:09:14;9.50;99.90
25550;DHT22;13444;50.562;7.262;2023-11-21T04:11:40;9.50;99.90
25550;DHT22;13444;50.562;7.262;2023-11-21T04:14:05;9.40;99.90
25550;DHT22;13444;50.562;7.262;2023-11-21T04:16:31;9.50;99.90
25550;DHT22;13444;50.562;7.262;2023-11-21T04:18:56;9.50;99.90
25550;DHT22;13444;50.562;7.262;2023-11-21T04:21:22;9.50;99.90
25550;DHT22;13444;50.562;7.262;2023-11-21T04:23:49;9.50;99.90
25550;DHT22;13444;50.562;7.262;2023-11-21T04:26:14;9.50;99.90
25550;DHT22;13444;50.562;7.262;2023-11-21T04:28:40;9.50;99.90
25550;DHT22;13444;50.562;7.262;2023-11-21T04:31:05;9.40;99.90
25550;DHT22;13444;50.562;7.262;2023-11-21T04:33:32;9.40;99.90
25550;DHT22;13444;50.562;7.262;2023-11-21T04:35:58;9.40;99.90
25550;DHT22;13444;50.562;7.262;2023-11-21T04:38:23;9.40;99.90
25550;DHT22;13444;50.562;7.262;2023-11-21T04:40:49;9.40;99.90
25550;DHT22;13444;50.562;7.262;2023-11-21T04:43:14;9.40;99.90
25550;DHT22;13444;50.562;7.262;2023-11-21T04:45:40;9.40;99.90
25550;DHT22;13444;50.562;7.262;2023-11-21T04:48:07;9.40;99.90
25550;DHT22;13444;50.562;7.262;2023-11-21T04:50:33;9.40;99.90
25550;DHT22;13444;50.562;7.262;2023-11-21T04:52:59;9.40;99.90
25550;DHT22;13444;50.562;7.262;2023-11-21T04:55:24;9.40;99.90
25550;DHT22;13444;50.562;7.262;2023-11-21T04:57:53;9.30;99.90
25550;DHT22;13444;50.562;7.262;2023-11-21T05:00:19;9.40;99.90
25550;DHT22;13444;50.562;7.262;2023-11-21T05:02:46;9.30;99.90
25550;DHT22;13444;50.562;7.262;2023-11-21T05:05:12;9.40;99.90
25550;DHT22;13444;50.562;7.262;2023-11-21T05:07:39;9.30;99.90
25550;DHT22;13444;50.562;7.262;2023-11-21T05:10:06;9.30;99.90
25550;DHT22;13444;50.562;7.262;2023-11-21T05:12:34;9.30;99.90
25550;DHT22;13444;50.562;7.262;2023-11-21T05:15:04;9.30;99.90
25550;DHT22;13444;50.562;7.262;2023-11-21T05:17:35;9.30;99.90
25550;DHT22;13444;50.562;7.262;2023-11-21T05:20:05;9.30;99.90
25550;DHT22;13444;50.562;7.262;2023-11-21T05:22:35;9.30;99.90
25550;DHT22;13444;50.562;7.262;2023-11-21T05:25:02;9.30;99.90
25550;DHT22;13444;50.562;7.262;2023-11-21T05:27:29;9.30;99.90
25550;DHT22;13444;50.562;7.262;2023-11-21T05:29:55;9.30;99.90
25550;DHT22;13444;50.562;7.262;2023-11-21T05:32:21;9.30;99.90
25550;DHT22;13444;50.562;7.262;2023-11-21T05:34:46;9.30;99.90
25550;DHT22;13444;50.562;7.262;2023-11-21T05:37:12;9.30;99.90
25550;DHT22;13444;50.562;7.262;2023-11-21T05:39:37;9.30;99.90
25550;DHT22;13444;50.562;7.262;2023-11-21T05:42:03;9.30;99.90
25550;DHT22;13444;50.562;7.262;2023-11-21T05:44:29;9.30;99.90
25550;DHT22;13444;50.562;7.262;2023-11-21T05:46:54;9.30;99.90
25550;DHT22;13444;50.562;7.262;2023-11-21T05:49:20;9.30;99.90
25550;DHT22;13444;50.562;7.262;2023-11-21T05:51:48;9.30;99.90
25550;DHT22;13444;50.562;7.262;2023-11-21T05:54:14;9.30;99.90
25550;DHT22;13444;50.562;7.262;2023-11-21T05:56:39;9.30;99.90
25550;DHT22;13444;50.562;7.262;2023-11-21T05:59:05;9.30;99.90
25550;DHT22;13444;50.562;7.262;2023-11-21T06:01:31;9.30;99.90
25550;DHT22;13444;50.562;7.262;2023-11-21T06:03:57;9.30;99.90
25550;DHT22;13444;50.562;7.262;2023-11-21T06:06:23;9.30;99.90
25550;DHT22;13444;50.562;7.262;2023-11-21T06:08:50;9.30;99.90
25550;DHT22;13444;50.562;7.262;2023-11-21T06:11:15;9.30;99.90
25550;DHT22;13444;50.562;7.262;2023-11-21T06:13:42;9.30;99.90
25550;DHT22;13444;50.562;7.262;2023-11-21T06:16:08;9.30;99.90
25550;DHT22;13444;50.562;7.262;2023-11-21T06:18:33;9.30;99.90
25550;DHT22;13444;50.562;7.262;2023-11-21T06:21:00;9.30;99.90
25550;DHT22;13444;50.562;7.262;2023-11-21T06:23:26;9.30;99.90
25550;DHT22;13444;50.562;7.262;2023-11-21T06:25:52;9.30;99.90
25550;DHT22;13444;50.562;7.262;2023-11-21T06:28:18;9.30;99.90
25550;DHT22;13444;50.562;7.262;2023-11-21T06:30:43;9.30;99.90
25550;DHT22;13444;50.562;7.262;2023-11-21T06:33:10;9.30;99.90
25550;DHT22;13444;50.562;7.262;2023-11-21T06:35:36;9.40;99.90
25550;DHT22;13444;50.562;7.262;2023-11-21T06:38:02;9.40;99.90
25550;DHT22;13444;50.562;7.262;2023-11-21T06:40:28;9.40;99.90
25550;DHT22;13444;50.562;7.262;2023-11-21T06:42:53;9.40;99.90
25550;DHT22;13444;50.562;7.262;2023-11-21T06:45:19;9.40;99.90
25550;DHT22;13444;50.562;7.262;2023-11-21T06:47:45;9.40;99.90
25550;DHT22;13444;50.562;7.262;2023-11-21T06:50:11;9.40;99.90
25550;DHT22;13444;50.562;7.262;2023-11-21T06:52:37;9.40;99.90
25550;DHT22;13444;50.562;7.262;2023-11-21T06:55:02;9.40;99.90
25550;DHT22;13444;50.562;7.262;2023-11-21T06:57:28;9.40;99.90
25550;DHT22;13444;50.562;7.262;2023-11-21T06:59:54;9.40;99.90
25550;DHT22;13444;50.562;7.262;2023-11-21T07:02:20;9.40;99.90
25550;DHT22;13444;50.562;7.262;2023-11-21T07:04:46;9.50;99.90
25550;DHT22;13444;50.562;7.262;2023-11-21T07:07:12;9.50;99.90
25550;DHT22;13444;50.562;7.262;2023-11-21T07:09:38;9.50;99.90
25550;DHT22;13444;50.562;7.262;2023-11-21T07:12:04;9.50;99.90
25550;DHT22;13444;50.562;7.262;2023-11-21T07:14:35;9.50;99.90
25550;DHT22;13444;50.562;7.262;2023-11-21T07:17:02;9.50;99.90
25550;DHT22;13444;50.562;7.262;2023-11-21T07:19:28;9.50;99.90
25550;DHT22;13444;50.562;7.262;2023-11-21T07:21:54;9.50;99.90
25550;DHT22;13444;50.562;7.262;2023-11-21T07:24:21;9.50;99.90
25550;DHT22;13444;50.562;7.262;2023-11-21T07:26:48;9.50;99.90
25550;DHT22;13444;50.562;7.262;2023-11-21T07:29:13;9.50;99.90
25550;DHT22;13444;50.562;7.262;2023-11-21T07:31:39;9.50;99.90
25550;DHT22;13444;50.562;7.262;2023-11-21T07:34:06;9.50;99.90
25550;DHT22;13444;50.562;7.262;2023-11-21T07:36:33;9.50;99.90
25550;DHT22;13444;50.562;7.262;2023-11-21T07:38:58;9.50;99.90
25550;DHT22;13444;50.562;7.262;2023-11-21T07:41:24;9.50;99.90
25550;DHT22;13444;50.562;7.262;2023-11-21T07:43:49;9.50;99.90
25550;DHT22;13444;50.562;7.262;2023-11-21T07:46:15;9.50;99.90
25550;DHT22;13444;50.562;7.262;2023-11-21T07:48:41;9.50;99.90
25550;DHT22;13444;50.562;7.262;2023-11-21T07:51:07;9.50;99.90
25550;DHT22;13444;50.562;7.262;2023-11-21T07:53:34;9.60;99.90
25550;DHT22;13444;50.562;7.262;2023-11-21T07:56:07;9.50;99.90
25550;DHT22;13444;50.562;7.262;2023-11-21T07:58:36;9.60;99.90
25550;DHT22;13444;50.562;7.262;2023-11-21T08:01:03;9.60;99.90
25550;DHT22;13444;50.562;7.262;2023-11-21T08:03:29;9.60;99.90
25550;DHT22;13444;50.562;7.262;2023-11-21T08:05:56;9.60;99.90
25550;DHT22;13444;50.562;7.262;2023-11-21T08:08:21;9.60;99.90
25550;DHT22;13444;50.562;7.262;2023-11-21T08:10:47;9.60;99.90
25550;DHT22;13444;50.562;7.262;2023-11-21T08:13:13;9.60;99.90
25550;DHT22;13444;50.562;7.262;2023-11-21T08:15:41;9.60;99.90
25550;DHT22;13444;50.562;7.262;2023-11-21T08:18:10;9.60;99.90
25550;DHT22;13444;50.562;7.262;2023-11-21T08:20:36;9.60;99.90
25550;DHT22;13444;50.562;7.262;2023-11-21T08:23:03;9.70;99.90
25550;DHT22;13444;50.562;7.262;2023-11-21T08:25:31;9.60;99.90
25550;DHT22;13444;50.562;7.262;2023-11-21T08:27:57;9.60;99.90
25550;DHT22;13444;50.562;7.262;2023-11-21T08:30:22;9.70;99.90
25550;DHT22;13444;50.562;7.262;2023-11-21T08:32:49;9.60;99.90
25550;DHT22;13444;50.562;7.262;2023-11-21T08:35:17;9.70;99.90
25550;DHT22;13444;50.562;7.262;2023-11-21T08:37:43;9.70;99.90
25550;DHT22;13444;50.562;7.262;2023-11-21T08:40:09;9.70;99.90
25550;DHT22;13444;50.562;7.262;2023-11-21T08:42:35;9.70;99.90
25550;DHT22;13444;50.562;7.262;2023-11-21T08:45:01;9.70;99.90
25550;DHT22;13444;50.562;7.262;2023-11-21T08:47:27;9.70;99.90
25550;DHT22;13444;50.562;7.262;2023-11-21T08:49:52;9.80;99.90
25550;DHT22;13444;50.562;7.262;2023-11-21T08:52:21;9.80;99.90
25550;DHT22;13444;50.562;7.262;2023-11-21T08:54:49;9.80;99.90
25550;DHT22;13444;50.562;7.262;2023-11-21T08:57:22;9.80;99.90
25550;DHT22;13444;50.562;7.262;2023-11-21T08:59:47;9.90;99.90
25550;DHT22;13444;50.562;7.262;2023-11-21T09:02:13;9.90;99.90
25550;DHT22;13444;50.562;7.262;2023-11-21T09:04:38;9.90;99.90
25550;DHT22;13444;50.562;7.262;2023-11-21T09:07:04;9.90;99.90
25550;DHT22;13444;50.562;7.262;2023-11-21T09:09:30;9.90;99.90
25550;DHT22;13444;50.562;7.262;2023-11-21T09:11:56;9.90;99.90
25550;DHT22;13444;50.562;7.262;2023-11-21T09:14:21;9.90;99.90
25550;DHT22;13444;50.562;7.262;2023-11-21T09:16:47;10.00;99.90
25550;DHT22;13444;50.562;7.262;2023-11-21T09:19:13;10.00;99.90
25550;DHT22;13444;50.562;7.262;2023-11-21T09:21:39;9.90;99.90
25550;DHT22;13444;50.562;7.262;2023-11-21T09:24:05;9.90;99.90
25550;DHT22;13444;50.562;7.262;2023-11-21T09:26:31;10.00;99.90
25550;DHT22;13444;50.562;7.262;2023-11-21T09:28:56;10.00;99.90
25550;DHT22;13444;50.562;7.262;2023-11-21T09:31:22;10.00;99.90
25550;DHT22;13444;50.562;7.262;2023-11-21T09:33:49;10.10;99.90
25550;DHT22;13444;50.562;7.262;2023-11-21T09:36:14;10.10;99.90
25550;DHT22;13444;50.562;7.262;2023-11-21T09:38:41;10.10;99.90
25550;DHT22;13444;50.562;7.262;2023-11-21T09:41:15;10.20;99.90
25550;DHT22;13444;50.562;7.262;2023-11-21T09:43:45;10.20;99.90
25550;DHT22;13444;50.562;7.262;2023-11-21T09:46:13;10.20;99.90
25550;DHT22;13444;50.562;7.262;2023-11-21T09:48:47;10.20;99.90
25550;DHT22;13444;50.562;7.262;2023-11-21T09:51:16;10.20;99.90
25550;DHT22;13444;50.562;7.262;2023-11-21T09:53:46;10.20;99.90
25550;DHT22;13444;50.562;7.262;2023-11-21T09:56:12;10.30;99.90
25550;DHT22;13444;50.562;7.262;2023-11-21T09:58:39;10.30;99.90
25550;DHT22;13444;50.562;7.262;2023-11-21T10:01:05;10.30;99.90
25550;DHT22;13444;50.562;7.262;2023-11-21T10:03:35;10.30;99.90
25550;DHT22;13444;50.562;7.262;2023-11-21T10:06:02;10.30;99.90
25550;DHT22;13444;50.562;7.262;2023-11-21T10:08:31;10.30;99.90
25550;DHT22;13444;50.562;7.262;2023-11-21T10:10:57;10.20;99.90
25550;DHT22;13444;50.562;7.262;2023-11-21T10:13:24;10.30;99.90
25550;DHT22;13444;50.562;7.262;2023-11-21T10:15:52;10.30;99.90
25550;DHT22;13444;50.562;7.262;2023-11-21T10:18:18;10.30;99.90
25550;DHT22;13444;50.562;7.262;2023-11-21T10:20:44;10.30;99.90
25550;DHT22;13444;50.562;7.262;2023-11-21T10:23:20;10.30;99.90
25550;DHT22;13444;50.562;7.262;2023-11-21T10:25:47;10.30;99.90
25550;DHT22;13444;50.562;7.262;2023-11-21T10:28:14;10.30;99.90
25550;DHT22;13444;50.562;7.262;2023-11-21T10:30:39;10.30;99.90
25550;DHT22;13444;50.562;7.262;2023-11-21T10:33:07;10.40;99.90
25550;DHT22;13444;50.562;7.262;2023-11-21T10:35:47;10.40;99.90
25550;DHT22;13444;50.562;7.262;2023-11-21T10:38:17;10.40;99.90
25550;DHT22;13444;50.562;7.262;2023-11-21T10:40:44;10.40;99.90
25550;DHT22;13444;50.562;7.262;2023-11-21T10:43:10;10.40;99.90
25550;DHT22;13444;50.562;7.262;2023-11-21T10:45:37;10.40;99.90
25550;DHT22;13444;50.562;7.262;2023-11-21T10:48:07;10.40;99.90
25550;DHT22;13444;50.562;7.262;2023-11-21T10:50:41;10.40;99.90
25550;DHT22;13444;50.562;7.262;2023-11-21T10:53:07;10.40;99.90
25550;DHT22;13444;50.562;7.262;2023-11-21T10:55:33;10.50;99.90
25550;DHT22;13444;50.562;7.262;2023-11-21T10:58:03;10.50;99.90
25550;DHT22;13444;50.562;7.262;2023-11-21T11:00:31;10.60;99.90
25550;DHT22;13444;50.562;7.262;2023-11-21T11:02:57;10.60;99.90
25550;DHT22;13444;50.562;7.262;2023-11-21T11:05:25;10.70;99.90
25550;DHT22;13444;50.562;7.262;2023-11-21T11:08:05;10.70;99.90
25550;DHT22;13444;50.562;7.262;2023-11-21T11:10:31;10.80;99.90
25550;DHT22;13444;50.562;7.262;2023-11-21T11:12:58;10.80;99.90
25550;DHT22;13444;50.562;7.262;2023-11-21T11:15:25;10.90;99.90
25550;DHT22;13444;50.562;7.262;2023-11-21T11:17:52;10.90;99.90
25550;DHT22;13444;50.562;7.262;2023-11-21T11:20:23;10.90;99.90
25550;DHT22;13444;50.562;7.262;2023-11-21T11:29:13;10.90;99.90
25550;DHT22;13444;50.562;7.262;2023-11-21T11:34:48;10.90;99.90
25550;DHT22;13444;50.562;7.262;2023-11-21T11:37:16;11.00;99.90
25550;DHT22;13444;50.562;7.262;2023-11-21T11:39:42;11.00;99.90
25550;DHT22;13444;50.562;7.262;2023-11-21T11:42:16;11.10;99.90
25550;DHT22;13444;50.562;7.262;2023-11-21T11:47:28;11.20;99.90
25550;DHT22;13444;50.562;7.262;2023-11-21T11:49:59;11.30;99.90
25550;DHT22;13444;50.562;7.262;2023-11-21T11:52:35;11.30;99.90
25550;DHT22;13444;50.562;7.262;2023-11-21T11:55:02;11.40;99.90
25550;DHT22;13444;50.562;7.262;2023-11-21T11:57:31;11.50;99.90
25550;DHT22;13444;50.562;7.262;2023-11-21T12:00:14;11.50;99.90
25550;DHT22;13444;50.562;7.262;2023-11-21T12:02:54;11.50;99.90
25550;DHT22;13444;50.562;7.262;2023-11-21T12:05:23;11.50;99.90
25550;DHT22;13444;50.562;7.262;2023-11-21T12:07:51;11.50;99.90
25550;DHT22;13444;50.562;7.262;2023-11-21T12:10:26;11.50;99.90
25550;DHT22;13444;50.562;7.262;2023-11-21T12:12:54;11.50;99.90
25550;DHT22;13444;50.562;7.262;2023-11-21T12:15:20;11.50;99.90
25550;DHT22;13444;50.562;7.262;2023-11-21T12:17:47;11.50;99.90
25550;DHT22;13444;50.562;7.262;2023-11-21T12:20:16;11.50;99.90
25550;DHT22;13444;50.562;7.262;2023-11-21T12:22:45;11.40;99.90
25550;DHT22;13444;50.562;7.262;2023-11-21T12:25:13;11.40;99.90
25550;DHT22;13444;50.562;7.262;2023-11-21T12:27:42;11.40;99.90
25550;DHT22;13444;50.562;7.262;2023-11-21T12:30:09;11.40;99.90
25550;DHT22;13444;50.562;7.262;2023-11-21T12:32:39;11.40;99.90
25550;DHT22;13444;50.562;7.262;2023-11-21T12:35:07;11.40;99.90
25550;DHT22;13444;50.562;7.262;2023-11-21T12:37:33;11.40;99.90
25550;DHT22;13444;50.562;7.262;2023-11-21T12:39:59;11.40;99.90
25550;DHT22;13444;50.562;7.262;2023-11-21T12:42:25;11.50;99.90
25550;DHT22;13444;50.562;7.262;2023-11-21T12:47:43;11.50;99.90
25550;DHT22;13444;50.562;7.262;2023-11-21T12:50:09;11.60;99.90
25550;DHT22;13444;50.562;7.262;2023-11-21T12:52:45;11.60;99.90
25550;DHT22;13444;50.562;7.262;2023-11-21T12:55:17;11.60;99.90
25550;DHT22;13444;50.562;7.262;2023-11-21T12:57:44;11.60;99.90
25550;DHT22;13444;50.562;7.262;2023-11-21T13:00:15;11.50;99.90
25550;DHT22;13444;50.562;7.262;2023-11-21T13:02:55;11.50;99.90
25550;DHT22;13444;50.562;7.262;2023-11-21T13:05:35;11.40;99.90
25550;DHT22;13444;50.562;7.262;2023-11-21T13:08:04;11.30;99.90
25550;DHT22;13444;50.562;7.262;2023-11-21T13:10:34;11.30;99.90
25550;DHT22;13444;50.562;7.262;2023-11-21T13:13:04;11.30;99.90
25550;DHT22;13444;50.562;7.262;2023-11-21T13:15:40;11.30;99.90
25550;DHT22;13444;50.562;7.262;2023-11-21T13:18:08;11.30;99.90
25550;DHT22;13444;50.562;7.262;2023-11-21T13:20:36;11.30;99.90
25550;DHT22;13444;50.562;7.262;2023-11-21T13:23:07;11.30;99.90
25550;DHT22;13444;50.562;7.262;2023-11-21T13:25:33;11.30;99.90
25550;DHT22;13444;50.562;7.262;2023-11-21T13:28:00;11.30;99.90
25550;DHT22;13444;50.562;7.262;2023-11-21T13:30:26;11.30;99.90
25550;DHT22;13444;50.562;7.262;2023-11-21T13:32:56;11.30;99.90
25550;DHT22;13444;50.562;7.262;2023-11-21T13:35:27;11.30;99.90
25550;DHT22;13444;50.562;7.262;2023-11-21T13:38:08;11.30;99.90
25550;DHT22;13444;50.562;7.262;2023-11-21T13:40:35;11.30;99.90
25550;DHT22;13444;50.562;7.262;2023-11-21T13:43:09;11.30;99.90
25550;DHT22;13444;50.562;7.262;2023-11-21T13:45:45;11.20;99.90
25550;DHT22;13444;50.562;7.262;2023-11-21T13:48:12;11.30;99.90
25550;DHT22;13444;50.562;7.262;2023-11-21T13:50:43;11.30;99.90
25550;DHT22;13444;50.562;7.262;2023-11-21T13:53:21;11.20;99.90
25550;DHT22;13444;50.562;7.262;2023-11-21T13:55:50;11.20;99.90
25550;DHT22;13444;50.562;7.262;2023-11-21T13:58:16;11.30;99.90
25550;DHT22;13444;50.562;7.262;2023-11-21T14:00:49;11.20;99.90
25550;DHT22;13444;50.562;7.262;2023-11-21T14:03:23;11.20;99.90
25550;DHT22;13444;50.562;7.262;2023-11-21T14:05:50;11.20;99.90
25550;DHT22;13444;50.562;7.262;2023-11-21T14:08:21;11.20;99.90
25550;DHT22;13444;50.562;7.262;2023-11-21T14:10:49;11.20;99.90
25550;DHT22;13444;50.562;7.262;2023-11-21T14:13:19;11.20;99.90
25550;DHT22;13444;50.562;7.262;2023-11-21T14:15:47;11.20;99.90
25550;DHT22;13444;50.562;7.262;2023-11-21T14:18:16;11.20;99.90
25550;DHT22;13444;50.562;7.262;2023-11-21T14:20:43;11.20;99.90
25550;DHT22;13444;50.562;7.262;2023-11-21T14:23:10;11.20;99.90
25550;DHT22;13444;50.562;7.262;2023-11-21T14:25:37;11.10;99.90
25550;DHT22;13444;50.562;7.262;2023-11-21T14:28:03;11.10;99.90
25550;DHT22;13444;50.562;7.262;2023-11-21T14:30:30;11.10;99.90
25550;DHT22;13444;50.562;7.262;2023-11-21T14:32:58;11.00;99.90
25550;DHT22;13444;50.562;7.262;2023-11-21T14:35:24;11.00;99.90
25550;DHT22;13444;50.562;7.262;2023-11-21T14:37:50;11.00;99.90
25550;DHT22;13444;50.562;7.262;2023-11-21T14:40:15;11.00;99.90
25550;DHT22;13444;50.562;7.262;2023-11-21T14:42:42;10.90;99.90
25550;DHT22;13444;50.562;7.262;2023-11-21T14:45:13;10.90;99.90
25550;DHT22;13444;50.562;7.262;2023-11-21T14:47:42;10.90;99.90
25550;DHT22;13444;50.562;7.262;2023-11-21T14:50:13;10.90;99.90
25550;DHT22;13444;50.562;7.262;2023-11-21T14:52:57;10.90;99.90
25550;DHT22;13444;50.562;7.262;2023-11-21T14:55:25;10.90;99.90
25550;DHT22;13444;50.562;7.262;2023-11-21T14:58:09;10.90;99.90
25550;DHT22;13444;50.562;7.262;2023-11-21T15:00:38;10.90;99.90
25550;DHT22;13444;50.562;7.262;2023-11-21T15:03:09;10.90;99.90
25550;DHT22;13444;50.562;7.262;2023-11-21T15:05:36;10.80;99.90
25550;DHT22;13444;50.562;7.262;2023-11-21T15:08:04;10.90;99.90
25550;DHT22;13444;50.562;7.262;2023-11-21T15:10:56;10.80;99.90
25550;DHT22;13444;50.562;7.262;2023-11-21T15:13:22;10.80;99.90
25550;DHT22;13444;50.562;7.262;2023-11-21T15:15:49;10.80;99.90
25550;DHT22;13444;50.562;7.262;2023-11-21T15:18:15;10.80;99.90
25550;DHT22;13444;50.562;7.262;2023-11-21T15:20:40;10.80;99.90
25550;DHT22;13444;50.562;7.262;2023-11-21T15:23:09;10.80;99.90
25550;DHT22;13444;50.562;7.262;2023-11-21T15:25:35;10.80;99.90
25550;DHT22;13444;50.562;7.262;2023-11-21T15:28:02;10.80;99.90
25550;DHT22;13444;50.562;7.262;2023-11-21T15:30:28;10.80;99.90
25550;DHT22;13444;50.562;7.262;2023-11-21T15:32:59;10.80;99.90
25550;DHT22;13444;50.562;7.262;2023-11-21T15:35:25;10.70;99.90
25550;DHT22;13444;50.562;7.262;2023-11-21T15:37:53;10.70;99.90
25550;DHT22;13444;50.562;7.262;2023-11-21T15:40:19;10.70;99.90
25550;DHT22;13444;50.562;7.262;2023-11-21T15:42:45;10.70;99.90
25550;DHT22;13444;50.562;7.262;2023-11-21T15:45:11;10.70;99.90
25550;DHT22;13444;50.562;7.262;2023-11-21T15:47:36;10.60;99.90
25550;DHT22;13444;50.562;7.262;2023-11-21T15:50:03;10.60;99.90
25550;DHT22;13444;50.562;7.262;2023-11-21T15:52:32;10.60;99.90
25550;DHT22;13444;50.562;7.262;2023-11-21T15:54:58;10.60;99.90